LTCGLTCA

Guest
Details From LTCG - TRABZON
To LTCA - ELAZIG
Flight Number -
Tags generated
Created
Modified
Stats Distance 145 nm / 269 km
Max Altitude 26,500 ft / 8,077 m
Waypoints 5
Social Downloads 0
Likes 0
Share VATSIM

Download

Looking for another format? Having issues loading an existing format? Contact us
Advertisement - Login to hide

Notes

Basic altitude profile: - Ascent Rate: 2500ft/min - Ascent Speed: 250kts - Cruise Altitude: 35000ft - Cruise Speed: 420kts - Descent Rate: 1500ft/min - Descent Speed: 250kts Options: - Use NATs: no - Use PACOTS: no - Use low airways: yes - Use high airways: no

Route

LTCG ORTAK W88 BALON LTCA

ID Type Via Altitude Latitude Longitude Leg Dist Tot Dist Heading (true) Name
O LTCG APT - 0 ft / 0 m 40.99506˚ 39.78970˚ - 0 nm - TRABZON
ORTAK FIX - 7,100 ft / 2,164 m 40.66556˚ 39.71639˚ 20 nm 20 nm 190° / 190° -
SONAD FIX W88 (AWY-LO) 26,500 ft / 8,077 m 40.41806˚ 39.67639˚ 14 nm 35 nm 187° / 187° -
BALON FIX W88 (AWY-LO) 26,500 ft / 8,077 m 40.09167˚ 39.60833˚ 19 nm 54 nm 189° / 189° -
O LTCA APT - 0 ft / 0 m 38.60692˚ 39.29142˚ 90 nm 145 nm 189° / 189° ELAZIG

Altitude Profile

Advertisement - Login to hide

LTCG

Details ICAO LTCG (TZX)
Name TRABZON
Region Turkey
Timezone Europe/Istanbul (UTC+3.0)
Stats Elevation 104 ft / 32 m (AMSL)
Location 40.995060° 39.789701°
Runways 1
Magnetic Variation 6.320° E

METAR

LTCG 152320Z 17003KT CAVOK 10/02 Q1019 NOSIG

Decode

TAF

Not found

Departure Runways

ID Width Length Bearing (true) Bearing (mag) Surface Threshold Offset Overrun Length
11 148 ft / 45 m 8,609 ft / 2,624 m 112.32° 106.00° Asphalt 0 ft / 0 m 197 ft / 60 m
29 148 ft / 45 m 8,609 ft / 2,624 m 292.34° 286.02° Asphalt 0 ft / 0 m 197 ft / 60 m

LTCA

Details ICAO LTCA (EZS)
Name ELAZIG
Region Turkey
Timezone Europe/Istanbul (UTC+3.0)
Stats Elevation 2,927 ft / 892 m (AMSL)
Location 38.606925° 39.291415°
Runways 1
Magnetic Variation 5.770° E

METAR

LTCA 152250Z VRB02KT 5000 BR OVC008 02/00 Q1025 TEMPO FM0000 1200

Decode

TAF

Not found

Destination Runways

ID Width Length Bearing (true) Bearing (mag) Surface Threshold Offset Overrun Length
13 105 ft / 32 m 5,616 ft / 1,712 m 134.22° 128.45° Asphalt 0 ft / 0 m 206 ft / 63 m
31 105 ft / 32 m 5,616 ft / 1,712 m 314.23° 308.46° Asphalt 0 ft / 0 m 206 ft / 63 m